createdAt,value
2024-04-01T00:02:16.155Z,99949.61
2024-04-01T00:04:43.990Z,99953.34
2024-04-01T00:07:12.485Z,99962.91
2024-04-01T00:09:40.376Z,99966.20
2024-04-01T00:12:08.882Z,99959.23
2024-04-01T00:14:36.663Z,99948.96
2024-04-01T00:17:04.732Z,99962.25
2024-04-01T00:19:32.815Z,99967.73
2024-04-01T00:22:02.211Z,99961.37
2024-04-01T00:24:31.756Z,99961.06
2024-04-01T00:26:59.770Z,99957.95
2024-04-01T00:29:27.604Z,99954.11
2024-04-01T00:31:55.393Z,99952.66
2024-04-01T00:34:26.618Z,99948.21
2024-04-01T00:36:59.718Z,99951.73
2024-04-01T00:39:27.663Z,99950.70
2024-04-01T00:41:55.835Z,99942.27
2024-04-01T00:44:23.897Z,99935.80
2024-04-01T00:46:52.429Z,99928.02
2024-04-01T00:49:20.939Z,99929.84
2024-04-01T00:51:49.222Z,99925.04
2024-04-01T00:54:16.964Z,99921.61
2024-04-01T00:56:46.020Z,99920.90
2024-04-01T00:59:15.192Z,99925.16
2024-04-01T01:01:43.911Z,99928.62
2024-04-01T01:04:12.003Z,99927.42
2024-04-01T01:06:39.920Z,99931.77
2024-04-01T01:09:08.186Z,99931.72
2024-04-01T01:11:36.213Z,99929.36
2024-04-01T01:14:04.530Z,99938.36
2024-04-01T01:16:32.833Z,99944.91
2024-04-01T01:19:00.718Z,99948.80
2024-04-01T01:21:28.597Z,99947.58
2024-04-01T01:23:56.723Z,99944.41
2024-04-01T01:26:24.675Z,99945.16
2024-04-01T01:28:52.441Z,99945.06
2024-04-01T01:31:20.626Z,99940.94
2024-04-01T01:33:48.592Z,99936.89
2024-04-01T01:36:16.546Z,99934.18
2024-04-01T01:38:44.614Z,99936.45
2024-04-01T01:41:12.470Z,99934.36
2024-04-01T01:43:41.162Z,99932.04
2024-04-01T01:46:09.338Z,99930.30
2024-04-01T01:48:37.291Z,99931.67
2024-04-01T01:51:05.651Z,99929.25
2024-04-01T01:53:34.034Z,99922.98
2024-04-01T01:56:01.910Z,99917.94
2024-04-01T01:58:29.938Z,99913.20
2024-04-01T02:00:57.679Z,99902.65
2024-04-01T02:03:25.596Z,99890.25
2024-04-01T02:05:53.319Z,99885.00
2024-04-01T02:08:21.988Z,99881.66
2024-04-01T02:10:57.266Z,99877.13
2024-04-01T02:13:25.219Z,99877.67
2024-04-01T02:15:53.071Z,99874.38
2024-04-01T02:18:22.381Z,99869.15
2024-04-01T02:20:52.595Z,99862.71
2024-04-01T02:23:20.617Z,99858.84
2024-04-01T02:25:48.642Z,99852.91
2024-04-01T02:32:36.732Z,99845.32
2024-04-01T02:35:05.256Z,99841.74
2024-04-01T02:37:33.282Z,99831.59
2024-04-01T02:40:01.329Z,99827.77
2024-04-01T02:42:29.591Z,99822.73
2024-04-01T02:44:57.456Z,99816.73
2024-04-01T02:47:25.529Z,99810.20
2024-04-01T02:49:53.414Z,99807.87
2024-04-01T02:52:21.680Z,99805.14
2024-04-01T02:54:49.708Z,99811.28
2024-04-01T02:57:17.622Z,99815.74
2024-04-01T02:59:45.680Z,99821.73
2024-04-01T03:02:13.662Z,99823.31
2024-04-01T03:04:41.523Z,99822.27
2024-04-01T03:07:10.105Z,99814.77
2024-04-01T03:09:37.983Z,99810.13
2024-04-01T03:12:05.912Z,99800.64
2024-04-01T03:14:33.662Z,99796.69
2024-04-01T03:17:01.460Z,99806.29
2024-04-01T03:19:29.438Z,99809.58
2024-04-01T03:21:58.286Z,99814.14
2024-04-01T03:24:26.413Z,99818.73
2024-04-01T03:26:54.509Z,99814.48
2024-04-01T03:29:22.470Z,99808.66
2024-04-01T03:31:50.130Z,99798.77
2024-04-01T03:34:18.417Z,99794.80
2024-04-01T03:36:46.633Z,99797.36
2024-04-01T03:39:15.228Z,99797.76
2024-04-01T03:41:43.131Z,99795.07
2024-04-01T03:44:10.748Z,99796.17
2024-04-01T03:46:39.906Z,99791.98
2024-04-01T03:49:07.695Z,99789.18
2024-04-01T03:51:35.675Z,99788.95
2024-04-01T03:54:03.447Z,99804.15
2024-04-01T03:56:31.308Z,99843.34
2024-04-01T03:58:59.389Z,99846.92
2024-04-01T04:01:30.186Z,99845.60
2024-04-01T04:04:00.987Z,99851.06
2024-04-01T04:06:29.540Z,99850.34
2024-04-01T04:08:58.587Z,99856.87
2024-04-01T04:11:26.940Z,99862.33
2024-04-01T04:13:54.841Z,99867.50
2024-04-01T04:16:24.796Z,99872.96
2024-04-01T04:18:52.839Z,99877.40
2024-04-01T04:21:21.020Z,99878.92
2024-04-01T04:23:48.844Z,99889.70
2024-04-01T04:26:16.852Z,99895.98
2024-04-01T04:28:45.850Z,99899.66
2024-04-01T04:31:14.113Z,99900.49
2024-04-01T04:33:42.264Z,99906.67
2024-04-01T04:36:10.579Z,99923.70
2024-04-01T04:38:39.096Z,99929.44
2024-04-01T04:41:07.890Z,99937.58
2024-04-01T04:43:35.962Z,99944.54
2024-04-01T04:46:03.858Z,99938.36
2024-04-01T04:48:31.739Z,99925.55
2024-04-01T04:51:00.094Z,99921.64
2024-04-01T04:53:28.266Z,99927.39
2024-04-01T04:55:56.382Z,99934.78
2024-04-01T04:58:24.097Z,99892.57
2024-04-01T05:00:51.893Z,99825.27
2024-04-01T05:03:20.491Z,99842.42
2024-04-01T05:05:48.770Z,99862.87
2024-04-01T05:08:16.564Z,99876.68
2024-04-01T05:10:46.339Z,99894.00
2024-04-01T05:13:14.403Z,99914.73
2024-04-01T05:15:42.203Z,99918.23
2024-04-01T05:18:10.030Z,99926.46
2024-04-01T05:20:38.349Z,99926.50
2024-04-01T05:23:06.224Z,99926.09
2024-04-01T05:25:34.410Z,99933.05
2024-04-01T05:28:02.495Z,99934.65
2024-04-01T05:30:30.640Z,99934.29
2024-04-01T05:32:58.512Z,99942.58
2024-04-01T05:35:26.562Z,99944.83
2024-04-01T05:37:54.381Z,99938.05
2024-04-01T05:40:22.333Z,99937.10
2024-04-01T05:42:50.461Z,99930.91
2024-04-01T05:45:18.777Z,99929.92
2024-04-01T05:47:49.978Z,99929.45
2024-04-01T05:50:21.811Z,99937.66
2024-04-01T05:52:50.133Z,99949.16
2024-04-01T05:55:19.630Z,99946.44
2024-04-01T05:57:47.857Z,99958.05
2024-04-01T06:00:15.884Z,99965.22
2024-04-01T06:02:43.754Z,99968.20
2024-04-01T06:05:11.729Z,99970.15
2024-04-01T06:07:42.712Z,99965.81
2024-04-01T06:10:10.410Z,99962.39
2024-04-01T06:12:38.474Z,99960.13
2024-04-01T06:15:07.154Z,99961.58
2024-04-01T06:17:34.729Z,99965.27
2024-04-01T06:20:02.818Z,99972.89
2024-04-01T06:22:30.679Z,99979.36
2024-04-01T06:24:59.214Z,99970.13
2024-04-01T06:27:27.059Z,99965.67
2024-04-01T06:29:54.914Z,99968.40
2024-04-01T06:32:22.884Z,99965.97
2024-04-01T06:34:52.446Z,99961.63
2024-04-01T06:37:20.668Z,99965.44
2024-04-01T06:39:49.221Z,99964.66
2024-04-01T06:42:17.171Z,99962.08
2024-04-01T06:44:50.810Z,99963.79
2024-04-01T06:47:19.303Z,99958.52
2024-04-01T06:49:47.280Z,99950.05
2024-04-01T06:52:15.465Z,99947.97
2024-04-01T06:54:43.331Z,99940.43
2024-04-01T06:57:11.711Z,99939.93
2024-04-01T06:59:39.935Z,99946.96
2024-04-01T07:02:08.163Z,99950.36
2024-04-01T07:04:36.158Z,99948.79
2024-04-01T07:07:04.228Z,99946.70
2024-04-01T07:09:32.836Z,99944.48
2024-04-01T07:12:00.772Z,99942.54
2024-04-01T07:14:30.877Z,99935.30
2024-04-01T07:16:59.058Z,99928.98
2024-04-01T07:19:27.010Z,99925.30
2024-04-01T07:21:55.189Z,99919.91
2024-04-01T07:24:23.273Z,99915.80
2024-04-01T07:26:51.046Z,99909.85
2024-04-01T07:29:19.135Z,99908.94
2024-04-01T07:31:48.144Z,99903.51
2024-04-01T07:34:16.141Z,99901.03
2024-04-01T07:36:43.876Z,99893.45
2024-04-01T07:39:12.424Z,99891.36
2024-04-01T07:41:40.539Z,99887.67
2024-04-01T07:44:08.555Z,99877.44
2024-04-01T07:46:36.704Z,99868.31
2024-04-01T07:49:05.287Z,99865.88
2024-04-01T07:51:33.195Z,99856.50
2024-04-01T07:54:01.284Z,99854.17
2024-04-01T07:56:30.128Z,99852.43
2024-04-01T07:59:00.582Z,99847.02
2024-04-01T08:01:31.518Z,99843.67
2024-04-01T08:03:59.377Z,99833.84
2024-04-01T08:06:27.601Z,99832.20
2024-04-01T08:08:55.544Z,99822.65
2024-04-01T08:11:23.964Z,99817.30
2024-04-01T08:13:51.969Z,99807.61
2024-04-01T08:16:19.832Z,99805.31
2024-04-01T08:18:47.956Z,99807.19
2024-04-01T08:21:16.191Z,99799.25
2024-04-01T08:23:44.508Z,99803.69
2024-04-01T08:26:12.433Z,99801.06
2024-04-01T08:28:40.202Z,99798.22
2024-04-01T08:31:08.044Z,99802.34
2024-04-01T08:33:36.104Z,99801.21
2024-04-01T08:36:05.799Z,99791.32
2024-04-01T08:38:33.902Z,99797.45
2024-04-01T08:41:06.473Z,99789.08
2024-04-01T08:43:38.768Z,99791.14
2024-04-01T08:46:06.767Z,99791.61
2024-04-01T08:48:34.872Z,99786.79
2024-04-01T08:51:06.798Z,99795.30
2024-04-01T08:53:51.744Z,99789.33
2024-04-01T08:56:20.585Z,99783.73
2024-04-01T08:58:48.561Z,99781.89
2024-04-01T09:01:16.711Z,99779.74
2024-04-01T09:03:44.755Z,99774.10
2024-04-01T09:06:12.738Z,99777.77
2024-04-01T09:08:41.875Z,99773.50
2024-04-01T09:11:10.101Z,99767.45
2024-04-01T09:13:39.436Z,99762.29
2024-04-01T09:16:08.861Z,99760.98
2024-04-01T09:18:40.027Z,99753.36
2024-04-01T09:21:08.057Z,99748.35
2024-04-01T09:23:42.437Z,99743.38
2024-04-01T09:26:10.593Z,99745.65
2024-04-01T09:28:38.412Z,99742.68
2024-04-01T09:31:06.377Z,99743.60
2024-04-01T09:33:34.397Z,99742.56
2024-04-01T09:36:03.593Z,99742.48
2024-04-01T09:38:35.692Z,99742.18
2024-04-01T09:41:03.614Z,99750.52
2024-04-01T09:43:42.950Z,99748.55
2024-04-01T09:46:20.321Z,99739.02
2024-04-01T09:48:48.472Z,99736.77
2024-04-01T09:51:16.342Z,99737.60
2024-04-01T09:53:44.582Z,99730.14
2024-04-01T09:56:49.751Z,99731.06
2024-04-01T09:59:33.018Z,99737.14
2024-04-01T10:02:15.444Z,99732.52
2024-04-01T10:04:43.331Z,99738.40
2024-04-01T10:07:36.907Z,99734.08
2024-04-01T10:10:42.873Z,99728.90
2024-04-01T10:13:23.047Z,99729.31
2024-04-01T10:16:13.542Z,99722.19
2024-04-01T10:19:03.368Z,99728.03
2024-04-01T10:21:45.610Z,99721.55
2024-04-01T10:24:51.897Z,99724.40
2024-04-01T10:27:55.364Z,99718.56
2024-04-01T10:30:54.343Z,99723.51
2024-04-01T10:33:36.897Z,99723.23
2024-04-01T10:36:27.050Z,99722.86
2024-04-01T10:39:17.164Z,99722.85
2024-04-01T10:42:20.462Z,99726.16
2024-04-01T10:45:05.386Z,99724.28
2024-04-01T10:47:58.600Z,99722.88
2024-04-01T10:50:48.595Z,99712.09
2024-04-01T10:53:44.981Z,99706.83
2024-04-01T10:56:41.233Z,99705.89
2024-04-01T10:59:27.761Z,99707.90
2024-04-01T11:02:16.044Z,99707.12
2024-04-01T11:04:59.860Z,99710.84
2024-04-01T11:07:46.781Z,99704.88
2024-04-01T11:10:21.831Z,99703.14
2024-04-01T11:13:05.074Z,99692.23
2024-04-01T11:15:33.032Z,99688.80
2024-04-01T11:18:16.550Z,99689.17
2024-04-01T11:20:47.414Z,99682.10
2024-04-01T11:23:34.161Z,99681.77
2024-04-01T11:26:08.337Z,99680.14
2024-04-01T11:28:42.746Z,99679.77
2024-04-01T11:31:17.858Z,99681.13
2024-04-01T11:33:58.163Z,99680.00
2024-04-01T11:36:33.996Z,99680.75
2024-04-01T11:39:10.563Z,99677.88
2024-04-01T11:41:42.593Z,99680.60
2024-04-01T11:44:10.614Z,99678.31
2024-04-01T11:46:40.218Z,99678.48
2024-04-01T11:49:08.242Z,99682.58
2024-04-01T11:51:36.812Z,99681.98
2024-04-01T11:54:04.761Z,99678.55
2024-04-01T11:56:43.181Z,99673.30
2024-04-01T11:59:11.812Z,99674.05
2024-04-01T12:01:42.645Z,99669.88
2024-04-01T12:04:19.022Z,99667.73
2024-04-01T12:06:47.358Z,99670.01
2024-04-01T12:09:15.704Z,99668.30
2024-04-01T12:11:44.406Z,99660.08
2024-04-01T12:14:12.198Z,99659.12
2024-04-01T12:16:44.226Z,99657.52
2024-04-01T12:19:13.219Z,99656.21
2024-04-01T12:21:49.358Z,99655.01
2024-04-01T12:24:18.346Z,99654.16
2024-04-01T12:26:51.302Z,99646.42
2024-04-01T12:29:19.426Z,99642.98
2024-04-01T12:31:52.445Z,99643.34
2024-04-01T12:34:20.793Z,99646.43
2024-04-01T12:36:48.796Z,99647.25
2024-04-01T12:39:17.080Z,99647.70
2024-04-01T12:41:47.955Z,99647.73
2024-04-01T12:44:17.499Z,99645.95
2024-04-01T12:46:45.387Z,99645.58
2024-04-01T12:49:14.113Z,99635.59
2024-04-01T12:51:42.852Z,99628.15
2024-04-01T12:54:32.765Z,99625.05
2024-04-01T12:57:42.714Z,99612.09
2024-04-01T13:00:10.737Z,99610.50
2024-04-01T13:03:03.611Z,99605.43
2024-04-01T13:05:54.292Z,99599.34
2024-04-01T13:08:47.704Z,99599.98
2024-04-01T13:11:27.960Z,99602.16
2024-04-01T13:14:55.128Z,99594.23
2024-04-01T13:17:53.982Z,99598.92
2024-04-01T13:21:04.463Z,99594.83
2024-04-01T13:23:37.099Z,99597.88
2024-04-01T13:26:19.711Z,99602.43
2024-04-01T13:28:52.073Z,99600.38
2024-04-01T13:31:33.659Z,99592.64
2024-04-01T13:34:50.407Z,99589.60
2024-04-01T13:37:32.477Z,99587.34
2024-04-01T13:40:07.413Z,99590.66
2024-04-01T13:43:00.750Z,99584.61
2024-04-01T13:45:46.723Z,99581.08
2024-04-01T13:48:24.353Z,99578.93
2024-04-01T13:51:08.697Z,99576.84
2024-04-01T13:53:44.784Z,99577.69
2024-04-01T13:56:40.961Z,99573.59
2024-04-01T13:59:23.222Z,99571.44
2024-04-01T14:01:57.750Z,99572.09
2024-04-01T14:04:47.409Z,99568.27
2024-04-01T14:07:27.858Z,99561.92
2024-04-01T14:10:11.827Z,99567.59
2024-04-01T14:12:56.673Z,99572.31
2024-04-01T14:15:54.192Z,99577.23
2024-04-01T14:18:34.280Z,99579.96
2024-04-01T14:21:03.318Z,99585.94
2024-04-01T14:23:36.123Z,99584.58
2024-04-01T14:26:04.675Z,99590.16
2024-04-01T14:28:33.447Z,99588.10
2024-04-01T14:31:01.476Z,99594.39
2024-04-01T14:33:29.526Z,99589.61
2024-04-01T14:35:57.693Z,99587.27
2024-04-01T14:38:25.858Z,99582.23
2024-04-01T14:40:53.943Z,99583.50
2024-04-01T14:43:23.985Z,99573.73
2024-04-01T14:45:53.752Z,99569.55
2024-04-01T14:48:21.729Z,99572.91
2024-04-01T14:50:49.817Z,99566.38
2024-04-01T14:53:17.985Z,99562.92
2024-04-01T14:55:46.273Z,99564.16
2024-04-01T14:58:13.992Z,99559.46
2024-04-01T15:00:42.061Z,99568.98
2024-04-01T15:03:10.171Z,99566.14
2024-04-01T15:05:38.189Z,99566.93
2024-04-01T15:08:10.271Z,99559.17
2024-04-01T15:10:57.031Z,99559.54
2024-04-01T15:13:27.811Z,99562.93
2024-04-01T15:15:56.362Z,99560.02
2024-04-01T15:18:24.826Z,99564.83
2024-04-01T15:20:53.098Z,99560.18
2024-04-01T15:23:21.234Z,99560.29
2024-04-01T15:25:49.304Z,99561.81
2024-04-01T15:28:17.429Z,99564.54
2024-04-01T15:30:54.921Z,99559.35
2024-04-01T15:33:23.217Z,99560.23
2024-04-01T15:35:51.311Z,99564.31
2024-04-01T15:38:19.320Z,99567.33
2024-04-01T15:40:47.673Z,99564.89
2024-04-01T15:43:15.751Z,99568.73
2024-04-01T15:45:44.578Z,99570.41
2024-04-01T15:48:14.550Z,99567.98
2024-04-01T15:50:43.320Z,99562.67
2024-04-01T15:53:12.293Z,99562.95
2024-04-01T15:55:43.891Z,99565.28
2024-04-01T15:58:16.194Z,99572.75
2024-04-01T16:00:46.635Z,99570.77
2024-04-01T16:03:18.991Z,99572.52
2024-04-01T16:05:53.948Z,99571.50
2024-04-01T16:08:22.189Z,99572.04
2024-04-01T16:10:51.550Z,99575.49
2024-04-01T16:13:19.566Z,99570.07
2024-04-01T16:15:47.682Z,99574.09
2024-04-01T16:18:27.032Z,99576.36
2024-04-01T16:20:56.564Z,99576.28
2024-04-01T16:23:25.763Z,99574.56
2024-04-01T16:25:53.755Z,99575.84
2024-04-01T16:28:22.529Z,99578.91
2024-04-01T16:30:54.732Z,99577.67
2024-04-01T16:33:23.119Z,99574.16
2024-04-01T16:35:51.213Z,99578.71
2024-04-01T16:38:19.469Z,99587.59
2024-04-01T16:40:47.533Z,99591.86
2024-04-01T16:43:15.638Z,99591.58
2024-04-01T16:45:43.891Z,99592.48
2024-04-01T16:48:11.911Z,99586.77
2024-04-01T16:50:40.791Z,99592.61
2024-04-01T16:53:08.985Z,99588.55
2024-04-01T16:55:36.945Z,99587.84
2024-04-01T16:58:05.397Z,99583.52
2024-04-01T17:00:33.785Z,99588.54
2024-04-01T17:03:02.047Z,99591.13
2024-04-01T17:05:30.932Z,99600.36
2024-04-01T17:07:59.348Z,99601.43
2024-04-01T17:10:27.522Z,99601.72
2024-04-01T17:12:55.668Z,99602.95
2024-04-01T17:15:23.467Z,99600.38
2024-04-01T17:17:53.639Z,99607.83
2024-04-01T17:20:22.809Z,99605.90
2024-04-01T17:22:51.258Z,99605.48
2024-04-01T17:25:19.774Z,99611.73
2024-04-01T17:27:47.815Z,99613.80
2024-04-01T17:30:15.692Z,99618.56
2024-04-01T17:32:43.592Z,99617.25
2024-04-01T17:35:11.462Z,99615.02
2024-04-01T17:37:39.966Z,99615.44
2024-04-01T17:40:08.913Z,99620.71
2024-04-01T17:42:42.245Z,99622.14
2024-04-01T17:45:12.890Z,99615.28
2024-04-01T17:47:41.999Z,99610.52
2024-04-01T17:50:10.167Z,99609.09
2024-04-01T17:52:38.050Z,99605.92
2024-04-01T17:55:06.108Z,99603.79
2024-04-01T17:57:34.863Z,99605.73
2024-04-01T18:00:06.813Z,99604.68
2024-04-01T18:02:42.509Z,99603.77
2024-04-01T18:05:10.579Z,99609.59
2024-04-01T18:07:38.983Z,99607.05
2024-04-01T18:10:07.180Z,99610.30
2024-04-01T18:12:35.344Z,99607.45
2024-04-01T18:15:04.443Z,99606.95
2024-04-01T18:17:32.541Z,99605.96
2024-04-01T18:20:00.757Z,99607.48
2024-04-01T18:22:28.921Z,99616.55
2024-04-01T18:24:58.031Z,99614.33
2024-04-01T18:27:31.074Z,99614.13
2024-04-01T18:29:59.551Z,99613.17
2024-04-01T18:32:27.481Z,99614.66
2024-04-01T18:34:57.237Z,99613.95
2024-04-01T18:37:26.029Z,99610.98
2024-04-01T18:39:54.441Z,99613.19
2024-04-01T18:42:23.023Z,99609.55
2024-04-01T18:44:51.199Z,99609.77
2024-04-01T18:47:19.418Z,99609.36
2024-04-01T18:49:47.762Z,99607.61
2024-04-01T18:52:24.732Z,99608.00
2024-04-01T18:54:52.776Z,99607.83
2024-04-01T18:57:21.896Z,99607.42
2024-04-01T18:59:50.113Z,99612.16
2024-04-01T19:02:20.589Z,99612.91
2024-04-01T19:04:48.690Z,99616.71
2024-04-01T19:07:16.646Z,99616.55
2024-04-01T19:09:46.321Z,99618.42
2024-04-01T19:12:14.643Z,99619.09
2024-04-01T19:14:43.002Z,99618.42
2024-04-01T19:17:11.147Z,99620.64
2024-04-01T19:19:39.773Z,99623.14
2024-04-01T19:22:08.679Z,99619.77
2024-04-01T19:24:38.119Z,99618.92
2024-04-01T19:27:06.369Z,99618.30
2024-04-01T19:29:35.468Z,99613.73
2024-04-01T19:32:04.017Z,99610.93
2024-04-01T19:34:32.246Z,99609.55
2024-04-01T19:37:01.054Z,99606.80
2024-04-01T19:39:29.274Z,99608.59
2024-04-01T19:41:59.096Z,99607.14
2024-04-01T19:44:27.939Z,99608.11
2024-04-01T19:46:56.178Z,99604.96
2024-04-01T19:49:24.269Z,99607.39
2024-04-01T19:51:52.398Z,99607.46
2024-04-01T19:54:20.570Z,99603.45
2024-04-01T19:56:48.382Z,99600.03
2024-04-01T19:59:17.560Z,99605.52
2024-04-01T20:01:46.186Z,99598.60
2024-04-01T20:04:25.244Z,99600.95
2024-04-01T20:06:54.037Z,99596.67
2024-04-01T20:09:31.426Z,99594.21
2024-04-01T20:12:00.061Z,99593.67
2024-04-01T20:14:28.271Z,99590.41
2024-04-01T20:16:56.296Z,99592.52
2024-04-01T20:19:24.507Z,99589.45
2024-04-01T20:21:52.684Z,99590.31
2024-04-01T20:24:27.688Z,99584.87
2024-04-01T20:26:58.399Z,99582.85
2024-04-01T20:29:28.198Z,99578.45
2024-04-01T20:32:02.450Z,99575.62
2024-04-01T20:34:30.468Z,99572.67
2024-04-01T20:37:01.837Z,99570.61
2024-04-01T20:39:30.075Z,99563.91
2024-04-01T20:41:59.944Z,99562.12
2024-04-01T20:44:28.296Z,99570.98
2024-04-01T20:46:56.595Z,99563.30
2024-04-01T20:49:25.243Z,99557.48
2024-04-01T20:51:53.110Z,99553.25
2024-04-01T20:54:28.649Z,99554.48
2024-04-01T20:56:57.668Z,99550.29
2024-04-01T20:59:25.711Z,99549.30
2024-04-01T21:02:09.700Z,99542.30
2024-04-01T21:04:37.799Z,99532.66
2024-04-01T21:07:06.128Z,99531.50
2024-04-01T21:09:34.051Z,99523.52
2024-04-01T21:12:01.824Z,99520.08
2024-04-01T21:14:29.937Z,99514.05
2024-04-01T21:16:58.185Z,99508.16
2024-04-01T21:19:26.512Z,99507.19
2024-04-01T21:21:54.570Z,99501.42
2024-04-01T21:24:22.474Z,99500.71
2024-04-01T21:26:50.409Z,99494.79
2024-04-01T21:29:18.381Z,99495.33
2024-04-01T21:31:46.180Z,99492.00
2024-04-01T21:34:14.102Z,99491.51
2024-04-01T21:36:41.938Z,99485.86
2024-04-01T21:39:09.872Z,99486.30
2024-04-01T21:41:38.156Z,99478.16
2024-04-01T21:44:06.141Z,99471.84
2024-04-01T21:46:34.172Z,99469.77
2024-04-01T21:49:06.300Z,99464.61
2024-04-01T21:51:34.811Z,99460.23
2024-04-01T21:54:02.601Z,99457.75
2024-04-01T21:56:30.524Z,99451.27
2024-04-01T21:58:58.562Z,99451.10
2024-04-01T22:01:26.812Z,99444.47
2024-04-01T22:03:54.656Z,99442.55
2024-04-01T22:06:22.383Z,99438.31
2024-04-01T22:08:50.416Z,99435.91
2024-04-01T22:11:18.314Z,99434.33
2024-04-01T22:13:46.438Z,99430.01
2024-04-01T22:16:14.434Z,99428.59
2024-04-01T22:18:42.257Z,99429.27
2024-04-01T22:21:10.054Z,99426.00
2024-04-01T22:23:37.792Z,99426.41
2024-04-01T22:26:05.906Z,99421.13
2024-04-01T22:28:33.762Z,99423.07
2024-04-01T22:31:01.470Z,99418.81
2024-04-01T22:33:29.848Z,99409.63
2024-04-01T22:35:57.853Z,99407.05
2024-04-01T22:38:25.767Z,99400.74
2024-04-01T22:40:53.791Z,99399.43
2024-04-01T22:43:21.478Z,99390.04
2024-04-01T22:45:49.598Z,99388.81
2024-04-01T22:48:17.290Z,99384.08
2024-04-01T22:50:45.353Z,99376.96
2024-04-01T22:53:13.144Z,99367.17
2024-04-01T22:55:41.027Z,99359.20
2024-04-01T22:58:08.949Z,99358.31
2024-04-01T23:00:36.694Z,99348.54
2024-04-01T23:03:05.336Z,99347.23
2024-04-01T23:05:34.400Z,99339.23
2024-04-01T23:08:02.292Z,99337.28
2024-04-01T23:10:32.613Z,99325.29
2024-04-01T23:13:00.628Z,99322.03
2024-04-01T23:15:28.592Z,99313.45
2024-04-01T23:17:56.594Z,99310.19
2024-04-01T23:22:54.965Z,99304.25
2024-04-01T23:25:22.897Z,99293.39
2024-04-01T23:27:51.997Z,99286.77
2024-04-01T23:30:20.093Z,99282.46
2024-04-01T23:32:47.900Z,99279.65
2024-04-01T23:35:15.667Z,99274.97
2024-04-01T23:37:43.398Z,99270.40
2024-04-01T23:40:11.434Z,99262.14
2024-04-01T23:42:39.189Z,99253.71
2024-04-01T23:45:07.507Z,99245.18
2024-04-01T23:47:35.517Z,99236.27
2024-04-01T23:50:03.796Z,99231.92
2024-04-01T23:52:31.704Z,99224.75
2024-04-01T23:54:59.794Z,99206.80
2024-04-01T23:57:28.311Z,99198.17
2024-04-01T23:59:56.192Z,99191.99
